Pagrindinis puslapis
METAR-TAF:

METAR-TAF

Oro uostai :

Hasvik, Norvegija

platuma: 70-29N, ilguma: 022-09E, Aukštis: 10 m

Dabartinis oras

Ataskaita buvo paskelbta 48 minutes, ne 10:20 UTC
Vėjas 16 kt iš Vakarų
Temperatūra 9°C
Drėgmė 100%
Slėgis 1024 hPa
Matomumas 10 km arba daugiau
Su prošvaistėmis ne aukštis 500 ft
dulksna

METAR: ENHK 301020Z 27016KT 9999 DZ BKN005 09/09 Q1024

Laikas: 13:08 (11:08 UTC)


TAF: trūkstamas

Orai ataskaitas ir orų prognozės (METAR, TAF).

turimą stotys yra geltonos ir raudonos taškus žemėlapyje.

Perkelti pele per norėdami pamatyti stoties vardą.

Tada spustelėkite, norėdami matyti oro stebėjimo ir prognozės.

Norėdami pakeisti žemėlapį: spustelėkite ant žalios mygtukų su juodo kryžiaus žemyn,; žalią mygtuką su brūkšneliu, jei norite nutolinti; arba žalių rodyklių gretimoms žemėlapius.


METAR-TAF: